Terminal Aerodrome Forecast
Issued by NWS

Home | Current Version | Previous Version | Text Only | Print | Product List | Glossary On
Versions: 1 2 3 4 5 6 7 8 9 10 11 12 13 14 15
000
FTUS46 KHNX 031122
TAFMER
TAF
KMER 031122Z 0312/0412 VRB03KT 3SM BR SKC
      TEMPO 0312/0316 1 1/2SM BR
     FM032000 34010KT P6SM SKC
     FM040400 VRB03KT P6SM SKC=

USA.gov is the U.S. government's official web portal to all federal, state and local government web resources and services.